sensor_id;sensor_type;location;lat;lon;timestamp;pressure;altitude;pressure_sealevel;temperature;humidity
68179;BME280;54998;42.656;23.382;2023-03-12T00:01:48;93984.94;;;1.35;57.15
68179;BME280;54998;42.656;23.382;2023-03-12T00:04:13;93964.28;;;1.41;57.23
68179;BME280;54998;42.656;23.382;2023-03-12T00:06:38;93995.03;;;1.35;56.90
68179;BME280;54998;42.656;23.382;2023-03-12T00:09:04;93989.69;;;1.27;57.16
68179;BME280;54998;42.656;23.382;2023-03-12T00:11:30;94007.78;;;1.34;57.03
68179;BME280;54998;42.656;23.382;2023-03-12T00:13:56;93992.72;;;1.32;56.88
68179;BME280;54998;42.656;23.382;2023-03-12T00:16:23;94006.97;;;1.33;56.97
68179;BME280;54998;42.656;23.382;2023-03-12T00:18:49;94010.16;;;1.24;56.64
68179;BME280;54998;42.656;23.382;2023-03-12T00:21:16;94001.84;;;1.22;57.01
68179;BME280;54998;42.656;23.382;2023-03-12T00:23:41;94028.72;;;1.23;57.05
68179;BME280;54998;42.656;23.382;2023-03-12T00:26:10;94028.34;;;1.16;57.38
68179;BME280;54998;42.656;23.382;2023-03-12T00:28:36;94030.78;;;1.05;57.92
68179;BME280;54998;42.656;23.382;2023-03-12T00:31:03;94031.28;;;1.10;57.67
68179;BME280;54998;42.656;23.382;2023-03-12T00:33:36;94030.25;;;1.13;58.10
68179;BME280;54998;42.656;23.382;2023-03-12T00:36:02;93987.91;;;1.16;57.42
68179;BME280;54998;42.656;23.382;2023-03-12T00:38:27;94002.69;;;1.10;57.28
68179;BME280;54998;42.656;23.382;2023-03-12T00:40:53;94009.56;;;1.08;57.27
68179;BME280;54998;42.656;23.382;2023-03-12T00:43:18;94014.50;;;1.09;57.80
68179;BME280;54998;42.656;23.382;2023-03-12T00:45:44;94014.22;;;1.01;57.64
68179;BME280;54998;42.656;23.382;2023-03-12T00:48:09;94015.72;;;1.03;57.34
68179;BME280;54998;42.656;23.382;2023-03-12T00:50:34;94012.31;;;1.05;57.00
68179;BME280;54998;42.656;23.382;2023-03-12T00:53:00;93976.31;;;1.01;57.36
68179;BME280;54998;42.656;23.382;2023-03-12T00:55:25;94018.97;;;0.93;57.16
68179;BME280;54998;42.656;23.382;2023-03-12T00:57:51;94022.91;;;0.97;57.79
68179;BME280;54998;42.656;23.382;2023-03-12T01:00:16;94028.75;;;0.97;57.57
68179;BME280;54998;42.656;23.382;2023-03-12T01:02:42;93992.09;;;0.92;57.69
68179;BME280;54998;42.656;23.382;2023-03-12T01:05:10;94027.66;;;0.89;57.32
68179;BME280;54998;42.656;23.382;2023-03-12T01:07:36;94034.66;;;0.85;58.27
68179;BME280;54998;42.656;23.382;2023-03-12T01:10:02;94039.47;;;0.88;58.08
68179;BME280;54998;42.656;23.382;2023-03-12T01:12:28;94036.56;;;0.81;58.69
68179;BME280;54998;42.656;23.382;2023-03-12T01:14:53;94040.19;;;0.77;59.11
68179;BME280;54998;42.656;23.382;2023-03-12T01:17:19;94032.13;;;0.72;59.32
68179;BME280;54998;42.656;23.382;2023-03-12T01:19:44;94053.84;;;0.75;59.12
68179;BME280;54998;42.656;23.382;2023-03-12T01:22:09;94056.75;;;0.69;59.50
68179;BME280;54998;42.656;23.382;2023-03-12T01:24:35;94042.41;;;0.56;59.70
68179;BME280;54998;42.656;23.382;2023-03-12T01:27:00;94052.63;;;0.55;59.73
68179;BME280;54998;42.656;23.382;2023-03-12T01:29:26;94041.50;;;0.57;60.12
68179;BME280;54998;42.656;23.382;2023-03-12T01:31:51;94034.81;;;0.56;59.75
68179;BME280;54998;42.656;23.382;2023-03-12T01:34:17;94024.94;;;0.53;60.08
68179;BME280;54998;42.656;23.382;2023-03-12T01:36:43;94027.25;;;0.56;59.84
68179;BME280;54998;42.656;23.382;2023-03-12T01:39:09;94039.88;;;0.44;60.33
68179;BME280;54998;42.656;23.382;2023-03-12T01:41:36;94042.91;;;0.49;60.35
68179;BME280;54998;42.656;23.382;2023-03-12T01:44:03;94019.38;;;0.48;60.38
68179;BME280;54998;42.656;23.382;2023-03-12T01:51:46;94021.19;;;0.46;60.33
68179;BME280;54998;42.656;23.382;2023-03-12T01:54:23;94031.19;;;0.48;59.86
68179;BME280;54998;42.656;23.382;2023-03-12T01:56:51;94044.94;;;0.44;59.89
68179;BME280;54998;42.656;23.382;2023-03-12T01:59:26;94032.72;;;0.50;59.82
68179;BME280;54998;42.656;23.382;2023-03-12T02:01:54;94044.81;;;0.58;59.32
68179;BME280;54998;42.656;23.382;2023-03-12T02:04:21;94035.25;;;0.50;58.45
68179;BME280;54998;42.656;23.382;2023-03-12T02:07:03;94054.75;;;0.61;58.49
68179;BME280;54998;42.656;23.382;2023-03-12T02:09:31;94050.38;;;0.50;59.28
68179;BME280;54998;42.656;23.382;2023-03-12T02:11:58;94056.25;;;0.51;59.41
68179;BME280;54998;42.656;23.382;2023-03-12T02:14:24;94066.25;;;0.52;59.48
68179;BME280;54998;42.656;23.382;2023-03-12T02:16:49;94046.53;;;0.45;59.01
68179;BME280;54998;42.656;23.382;2023-03-12T02:21:57;94053.00;;;0.49;59.51
68179;BME280;54998;42.656;23.382;2023-03-12T02:24:36;94073.81;;;0.39;59.66
68179;BME280;54998;42.656;23.382;2023-03-12T02:27:03;94066.09;;;0.41;60.05
68179;BME280;54998;42.656;23.382;2023-03-12T02:29:31;94046.84;;;0.40;59.53
68179;BME280;54998;42.656;23.382;2023-03-12T02:31:58;94047.22;;;0.34;59.64
68179;BME280;54998;42.656;23.382;2023-03-12T02:34:25;94042.88;;;0.36;59.24
68179;BME280;54998;42.656;23.382;2023-03-12T02:36:52;94030.19;;;0.37;59.26
68179;BME280;54998;42.656;23.382;2023-03-12T02:39:17;94034.13;;;0.42;59.02
68179;BME280;54998;42.656;23.382;2023-03-12T02:41:53;94041.88;;;0.38;59.33
68179;BME280;54998;42.656;23.382;2023-03-12T02:44:37;94040.44;;;0.34;59.76
68179;BME280;54998;42.656;23.382;2023-03-12T02:47:04;94022.59;;;0.25;60.01
68179;BME280;54998;42.656;23.382;2023-03-12T02:49:31;94008.66;;;0.32;60.16
68179;BME280;54998;42.656;23.382;2023-03-12T02:51:57;94016.22;;;0.32;60.05
68179;BME280;54998;42.656;23.382;2023-03-12T02:54:24;94029.22;;;0.26;59.88
68179;BME280;54998;42.656;23.382;2023-03-12T02:56:50;94046.47;;;0.19;60.33
68179;BME280;54998;42.656;23.382;2023-03-12T02:59:16;94038.03;;;0.20;60.78
68179;BME280;54998;42.656;23.382;2023-03-12T03:01:42;94035.78;;;0.15;60.50
68179;BME280;54998;42.656;23.382;2023-03-12T03:04:09;94032.25;;;0.18;60.97
68179;BME280;54998;42.656;23.382;2023-03-12T03:06:37;94043.06;;;0.20;60.97
68179;BME280;54998;42.656;23.382;2023-03-12T03:09:03;94027.09;;;0.19;61.11
68179;BME280;54998;42.656;23.382;2023-03-12T03:11:29;94027.31;;;0.16;61.25
68179;BME280;54998;42.656;23.382;2023-03-12T03:13:55;94008.94;;;0.14;60.68
68179;BME280;54998;42.656;23.382;2023-03-12T03:16:21;94024.69;;;0.18;60.07
68179;BME280;54998;42.656;23.382;2023-03-12T03:18:47;94019.66;;;0.18;60.15
68179;BME280;54998;42.656;23.382;2023-03-12T03:21:13;94035.88;;;0.14;59.63
68179;BME280;54998;42.656;23.382;2023-03-12T03:23:47;94036.69;;;0.14;59.66
68179;BME280;54998;42.656;23.382;2023-03-12T03:26:15;94027.94;;;0.20;59.12
68179;BME280;54998;42.656;23.382;2023-03-12T03:28:41;94036.78;;;0.13;59.27
68179;BME280;54998;42.656;23.382;2023-03-12T03:31:06;94040.94;;;0.14;58.94
68179;BME280;54998;42.656;23.382;2023-03-12T03:33:34;94057.16;;;0.10;59.04
68179;BME280;54998;42.656;23.382;2023-03-12T03:36:00;94049.31;;;0.14;58.71
68179;BME280;54998;42.656;23.382;2023-03-12T03:38:27;94046.56;;;0.05;58.81
68179;BME280;54998;42.656;23.382;2023-03-12T03:40:53;94043.03;;;0.07;58.72
68179;BME280;54998;42.656;23.382;2023-03-12T03:43:20;94057.38;;;0.07;57.98
68179;BME280;54998;42.656;23.382;2023-03-12T03:45:46;94074.81;;;0.10;57.46
68179;BME280;54998;42.656;23.382;2023-03-12T03:48:12;94062.84;;;0.13;57.77
68179;BME280;54998;42.656;23.382;2023-03-12T03:50:38;94044.00;;;-0.08;58.12
68179;BME280;54998;42.656;23.382;2023-03-12T03:53:06;94073.06;;;-0.03;58.07
68179;BME280;54998;42.656;23.382;2023-03-12T03:55:36;94082.25;;;-0.02;58.26
68179;BME280;54998;42.656;23.382;2023-03-12T03:58:01;94085.78;;;-0.04;58.51
68179;BME280;54998;42.656;23.382;2023-03-12T04:00:27;94105.53;;;-0.11;58.58
68179;BME280;54998;42.656;23.382;2023-03-12T04:02:52;94125.06;;;-0.14;58.64
68179;BME280;54998;42.656;23.382;2023-03-12T04:05:19;94123.38;;;-0.14;58.28
68179;BME280;54998;42.656;23.382;2023-03-12T04:07:45;94131.00;;;-0.01;57.62
68179;BME280;54998;42.656;23.382;2023-03-12T04:10:11;94121.56;;;-0.12;57.39
68179;BME280;54998;42.656;23.382;2023-03-12T04:12:36;94108.75;;;-0.09;57.30
68179;BME280;54998;42.656;23.382;2023-03-12T04:15:02;94123.19;;;-0.11;57.15
68179;BME280;54998;42.656;23.382;2023-03-12T04:17:27;94124.06;;;-0.12;56.76
68179;BME280;54998;42.656;23.382;2023-03-12T04:19:53;94135.81;;;-0.11;56.52
68179;BME280;54998;42.656;23.382;2023-03-12T04:22:18;94135.25;;;-0.16;55.84
68179;BME280;54998;42.656;23.382;2023-03-12T04:24:44;94135.53;;;-0.21;55.61
68179;BME280;54998;42.656;23.382;2023-03-12T04:27:09;94125.72;;;-0.11;54.89
68179;BME280;54998;42.656;23.382;2023-03-12T04:29:35;94151.66;;;-0.23;54.60
68179;BME280;54998;42.656;23.382;2023-03-12T04:32:00;94153.28;;;-0.22;55.27
68179;BME280;54998;42.656;23.382;2023-03-12T04:34:25;94162.75;;;-0.26;55.18
68179;BME280;54998;42.656;23.382;2023-03-12T04:36:51;94171.13;;;-0.25;55.07
68179;BME280;54998;42.656;23.382;2023-03-12T04:39:18;94174.19;;;-0.34;55.69
68179;BME280;54998;42.656;23.382;2023-03-12T04:41:44;94170.47;;;-0.29;54.98
68179;BME280;54998;42.656;23.382;2023-03-12T04:44:12;94176.59;;;-0.33;55.48
68179;BME280;54998;42.656;23.382;2023-03-12T04:46:38;94177.97;;;-0.42;55.96
68179;BME280;54998;42.656;23.382;2023-03-12T04:49:04;94193.44;;;-0.33;55.42
68179;BME280;54998;42.656;23.382;2023-03-12T04:51:30;94192.66;;;-0.34;55.57
68179;BME280;54998;42.656;23.382;2023-03-12T04:53:56;94208.06;;;-0.38;55.40
68179;BME280;54998;42.656;23.382;2023-03-12T04:56:22;94206.78;;;-0.31;55.52
68179;BME280;54998;42.656;23.382;2023-03-12T04:58:48;94198.94;;;-0.12;55.75
68179;BME280;54998;42.656;23.382;2023-03-12T05:01:25;94225.19;;;0.27;54.56
68179;BME280;54998;42.656;23.382;2023-03-12T05:03:52;94222.16;;;0.49;53.52
68179;BME280;54998;42.656;23.382;2023-03-12T05:06:18;94217.88;;;0.64;53.02
68179;BME280;54998;42.656;23.382;2023-03-12T05:08:45;94211.34;;;0.05;54.13
68179;BME280;54998;42.656;23.382;2023-03-12T05:11:10;94213.78;;;0.07;54.13
68179;BME280;54998;42.656;23.382;2023-03-12T05:13:35;94218.03;;;-0.08;54.69
68179;BME280;54998;42.656;23.382;2023-03-12T05:16:01;94227.50;;;-0.12;54.73
68179;BME280;54998;42.656;23.382;2023-03-12T05:18:26;94233.34;;;0.03;54.45
68179;BME280;54998;42.656;23.382;2023-03-12T05:20:59;94242.34;;;0.76;53.02
68179;BME280;54998;42.656;23.382;2023-03-12T05:23:25;94239.44;;;1.22;51.48
68179;BME280;54998;42.656;23.382;2023-03-12T05:25:51;94244.81;;;1.43;50.97
68179;BME280;54998;42.656;23.382;2023-03-12T05:28:16;94248.28;;;1.93;49.87
68179;BME280;54998;42.656;23.382;2023-03-12T05:30:41;94238.00;;;2.20;48.49
68179;BME280;54998;42.656;23.382;2023-03-12T05:33:07;94249.94;;;2.18;47.96
68179;BME280;54998;42.656;23.382;2023-03-12T05:35:32;94248.38;;;1.66;48.65
68179;BME280;54998;42.656;23.382;2023-03-12T05:37:58;94245.13;;;1.38;49.59
68179;BME280;54998;42.656;23.382;2023-03-12T05:40:23;94242.44;;;1.14;48.41
68179;BME280;54998;42.656;23.382;2023-03-12T05:42:48;94264.06;;;1.46;48.53
68179;BME280;54998;42.656;23.382;2023-03-12T05:45:14;94257.06;;;2.13;47.60
68179;BME280;54998;42.656;23.382;2023-03-12T05:47:39;94255.50;;;3.44;44.92
68179;BME280;54998;42.656;23.382;2023-03-12T05:50:05;94259.38;;;3.72;43.33
68179;BME280;54998;42.656;23.382;2023-03-12T05:52:30;94251.53;;;4.20;41.53
68179;BME280;54998;42.656;23.382;2023-03-12T06:03:18;94271.66;;;5.22;40.68
68179;BME280;54998;42.656;23.382;2023-03-12T06:05:43;94288.19;;;4.95;40.01
68179;BME280;54998;42.656;23.382;2023-03-12T06:08:10;94266.22;;;4.94;40.78
68179;BME280;54998;42.656;23.382;2023-03-12T06:10:36;94274.75;;;5.04;40.37
68179;BME280;54998;42.656;23.382;2023-03-12T06:13:03;94299.25;;;5.05;39.73
68179;BME280;54998;42.656;23.382;2023-03-12T06:15:29;94302.81;;;4.48;41.79
68179;BME280;54998;42.656;23.382;2023-03-12T06:17:54;94292.78;;;4.90;40.79
68179;BME280;54998;42.656;23.382;2023-03-12T06:20:20;94293.47;;;5.03;39.76
68179;BME280;54998;42.656;23.382;2023-03-12T06:22:45;94304.63;;;4.80;40.23
68179;BME280;54998;42.656;23.382;2023-03-12T06:25:10;94315.19;;;5.07;39.38
68179;BME280;54998;42.656;23.382;2023-03-12T06:27:36;94300.84;;;4.51;41.03
68179;BME280;54998;42.656;23.382;2023-03-12T06:30:02;94299.34;;;4.26;40.50
68179;BME280;54998;42.656;23.382;2023-03-12T06:32:28;94316.28;;;5.26;39.91
68179;BME280;54998;42.656;23.382;2023-03-12T06:34:53;94323.63;;;5.93;38.29
68179;BME280;54998;42.656;23.382;2023-03-12T06:37:19;94332.44;;;6.31;38.12
68179;BME280;54998;42.656;23.382;2023-03-12T06:39:44;94321.44;;;5.89;38.63
68179;BME280;54998;42.656;23.382;2023-03-12T06:42:10;94319.94;;;5.65;38.79
68179;BME280;54998;42.656;23.382;2023-03-12T06:44:39;94333.78;;;5.19;39.94
68179;BME280;54998;42.656;23.382;2023-03-12T06:47:04;94330.09;;;5.97;38.71
68179;BME280;54998;42.656;23.382;2023-03-12T06:49:30;94321.97;;;6.65;37.33
68179;BME280;54998;42.656;23.382;2023-03-12T06:51:57;94328.53;;;6.58;37.92
68179;BME280;54998;42.656;23.382;2023-03-12T06:54:22;94346.63;;;5.50;40.24
68179;BME280;54998;42.656;23.382;2023-03-12T06:56:48;94346.75;;;5.05;40.44
68179;BME280;54998;42.656;23.382;2023-03-12T06:59:13;94355.56;;;5.97;39.73
68179;BME280;54998;42.656;23.382;2023-03-12T07:01:38;94356.72;;;5.93;38.64
68179;BME280;54998;42.656;23.382;2023-03-12T07:04:04;94345.09;;;5.59;39.50
68179;BME280;54998;42.656;23.382;2023-03-12T07:06:29;94347.94;;;5.65;39.51
68179;BME280;54998;42.656;23.382;2023-03-12T07:08:55;94368.50;;;6.06;38.34
68179;BME280;54998;42.656;23.382;2023-03-12T07:11:20;94368.38;;;6.90;35.97
68179;BME280;54998;42.656;23.382;2023-03-12T07:13:45;94375.81;;;6.41;36.71
68179;BME280;54998;42.656;23.382;2023-03-12T07:16:11;94371.81;;;6.48;36.00
68179;BME280;54998;42.656;23.382;2023-03-12T07:18:37;94386.31;;;6.48;36.72
68179;BME280;54998;42.656;23.382;2023-03-12T07:21:02;94382.47;;;6.63;35.50
68179;BME280;54998;42.656;23.382;2023-03-12T07:23:28;94382.28;;;7.16;35.45
68179;BME280;54998;42.656;23.382;2023-03-12T07:25:53;94406.59;;;6.07;36.73
68179;BME280;54998;42.656;23.382;2023-03-12T07:28:19;94396.41;;;6.07;36.84
68179;BME280;54998;42.656;23.382;2023-03-12T07:30:45;94392.06;;;6.40;36.24
68179;BME280;54998;42.656;23.382;2023-03-12T07:33:20;94379.47;;;6.79;34.63
68179;BME280;54998;42.656;23.382;2023-03-12T07:35:47;94386.66;;;6.64;35.34
68179;BME280;54998;42.656;23.382;2023-03-12T07:38:13;94400.69;;;6.07;36.43
68179;BME280;54998;42.656;23.382;2023-03-12T07:40:39;94389.16;;;5.91;36.87
68179;BME280;54998;42.656;23.382;2023-03-12T07:43:04;94407.81;;;5.48;37.67
68179;BME280;54998;42.656;23.382;2023-03-12T07:45:37;94402.41;;;5.74;36.92
68179;BME280;54998;42.656;23.382;2023-03-12T07:48:03;94400.97;;;6.86;35.43
68179;BME280;54998;42.656;23.382;2023-03-12T07:50:28;94406.88;;;7.27;34.12
68179;BME280;54998;42.656;23.382;2023-03-12T07:52:54;94424.25;;;5.88;35.07
68179;BME280;54998;42.656;23.382;2023-03-12T07:55:19;94415.97;;;5.42;36.48
68179;BME280;54998;42.656;23.382;2023-03-12T07:57:45;94416.66;;;5.33;36.72
68179;BME280;54998;42.656;23.382;2023-03-12T08:00:10;94403.84;;;5.99;35.90
68179;BME280;54998;42.656;23.382;2023-03-12T08:02:36;94418.22;;;6.21;35.39
68179;BME280;54998;42.656;23.382;2023-03-12T08:05:02;94432.09;;;8.10;32.54
68179;BME280;54998;42.656;23.382;2023-03-12T08:07:27;94430.63;;;8.07;32.35
68179;BME280;54998;42.656;23.382;2023-03-12T08:09:57;94437.47;;;7.77;32.25
68179;BME280;54998;42.656;23.382;2023-03-12T08:12:23;94434.13;;;6.86;34.28
68179;BME280;54998;42.656;23.382;2023-03-12T08:14:48;94435.44;;;8.30;31.97
68179;BME280;54998;42.656;23.382;2023-03-12T08:17:13;94450.41;;;6.64;33.66
68179;BME280;54998;42.656;23.382;2023-03-12T08:19:39;94448.84;;;6.10;33.98
68179;BME280;54998;42.656;23.382;2023-03-12T08:22:05;94452.09;;;6.01;34.63
68179;BME280;54998;42.656;23.382;2023-03-12T08:24:31;94424.38;;;5.43;35.28
68179;BME280;54998;42.656;23.382;2023-03-12T08:26:56;94445.97;;;6.24;35.28
68179;BME280;54998;42.656;23.382;2023-03-12T08:29:22;94457.69;;;6.99;33.43
68179;BME280;54998;42.656;23.382;2023-03-12T08:31:47;94467.69;;;7.63;32.98
68179;BME280;54998;42.656;23.382;2023-03-12T08:34:12;94469.69;;;7.49;32.74
68179;BME280;54998;42.656;23.382;2023-03-12T08:36:38;94462.09;;;8.08;31.87
68179;BME280;54998;42.656;23.382;2023-03-12T08:39:03;94460.88;;;9.08;30.20
68179;BME280;54998;42.656;23.382;2023-03-12T08:41:28;94478.09;;;8.68;31.54
68179;BME280;54998;42.656;23.382;2023-03-12T08:43:54;94480.06;;;10.40;28.32
68179;BME280;54998;42.656;23.382;2023-03-12T08:46:20;94477.38;;;9.33;29.32
68179;BME280;54998;42.656;23.382;2023-03-12T08:48:46;94476.63;;;8.56;30.02
68179;BME280;54998;42.656;23.382;2023-03-12T08:51:12;94465.00;;;8.71;30.21
68179;BME280;54998;42.656;23.382;2023-03-12T08:53:38;94481.47;;;9.16;29.97
68179;BME280;54998;42.656;23.382;2023-03-12T08:56:04;94450.13;;;9.32;29.05
68179;BME280;54998;42.656;23.382;2023-03-12T08:58:29;94470.16;;;10.89;27.50
68179;BME280;54998;42.656;23.382;2023-03-12T09:00:56;94489.06;;;10.88;26.45
68179;BME280;54998;42.656;23.382;2023-03-12T09:03:22;94478.78;;;8.51;29.99
68179;BME280;54998;42.656;23.382;2023-03-12T09:05:49;94481.47;;;8.39;30.80
68179;BME280;54998;42.656;23.382;2023-03-12T09:08:16;94483.78;;;8.42;30.94
68179;BME280;54998;42.656;23.382;2023-03-12T09:10:47;94471.97;;;8.89;30.65
68179;BME280;54998;42.656;23.382;2023-03-12T09:13:13;94482.34;;;9.62;29.58
68179;BME280;54998;42.656;23.382;2023-03-12T09:15:38;94455.81;;;11.90;26.59
68179;BME280;54998;42.656;23.382;2023-03-12T09:18:04;94476.44;;;12.06;26.42
68179;BME280;54998;42.656;23.382;2023-03-12T09:20:29;94446.88;;;9.02;29.91
68179;BME280;54998;42.656;23.382;2023-03-12T09:22:54;94464.16;;;10.01;28.85
68179;BME280;54998;42.656;23.382;2023-03-12T09:25:20;94472.81;;;9.27;30.09
68179;BME280;54998;42.656;23.382;2023-03-12T09:27:47;94479.53;;;8.90;30.47
68179;BME280;54998;42.656;23.382;2023-03-12T09:30:16;94480.56;;;9.62;30.18
68179;BME280;54998;42.656;23.382;2023-03-12T09:32:42;94474.66;;;10.43;28.79
68179;BME280;54998;42.656;23.382;2023-03-12T09:35:10;94461.94;;;13.04;25.76
68179;BME280;54998;42.656;23.382;2023-03-12T09:37:35;94477.16;;;14.78;23.63
68179;BME280;54998;42.656;23.382;2023-03-12T09:40:01;94480.09;;;14.75;23.37
68179;BME280;54998;42.656;23.382;2023-03-12T09:42:39;94481.19;;;14.95;23.03
68179;BME280;54998;42.656;23.382;2023-03-12T09:55:57;94464.22;;;11.15;26.77
68179;BME280;54998;42.656;23.382;2023-03-12T09:58:33;94467.91;;;10.86;27.57
68179;BME280;54998;42.656;23.382;2023-03-12T10:06:29;94464.13;;;13.31;24.75
68179;BME280;54998;42.656;23.382;2023-03-12T10:14:11;94466.28;;;10.59;27.99
68179;BME280;54998;42.656;23.382;2023-03-12T10:25:13;94431.94;;;13.67;23.65
68179;BME280;54998;42.656;23.382;2023-03-12T10:27:40;94443.88;;;13.12;23.48
68179;BME280;54998;42.656;23.382;2023-03-12T10:30:17;94443.09;;;14.13;22.46
68179;BME280;54998;42.656;23.382;2023-03-12T10:32:53;94450.53;;;13.54;24.19
68179;BME280;54998;42.656;23.382;2023-03-12T10:35:25;94439.75;;;13.42;23.74
68179;BME280;54998;42.656;23.382;2023-03-12T10:37:57;94452.97;;;10.02;26.59
68179;BME280;54998;42.656;23.382;2023-03-12T10:40:31;94453.47;;;7.89;29.62
68179;BME280;54998;42.656;23.382;2023-03-12T10:42:59;94481.69;;;6.66;32.22
68179;BME280;54998;42.656;23.382;2023-03-12T10:46:00;94469.44;;;7.12;31.40
68179;BME280;54998;42.656;23.382;2023-03-12T10:48:30;94467.50;;;8.24;30.37
68179;BME280;54998;42.656;23.382;2023-03-12T10:51:13;94468.84;;;9.32;28.79
68179;BME280;54998;42.656;23.382;2023-03-12T10:53:44;94466.38;;;11.02;27.51
68179;BME280;54998;42.656;23.382;2023-03-12T10:56:17;94472.41;;;12.20;25.90
68179;BME280;54998;42.656;23.382;2023-03-12T10:58:45;94464.78;;;11.35;26.45
68179;BME280;54998;42.656;23.382;2023-03-12T11:03:47;94465.34;;;10.86;27.13
68179;BME280;54998;42.656;23.382;2023-03-12T11:06:26;94450.72;;;12.31;25.36
68179;BME280;54998;42.656;23.382;2023-03-12T11:09:06;94464.34;;;11.14;26.78
68179;BME280;54998;42.656;23.382;2023-03-12T11:11:38;94457.97;;;12.52;24.75
68179;BME280;54998;42.656;23.382;2023-03-12T11:14:28;94452.25;;;11.32;26.50
68179;BME280;54998;42.656;23.382;2023-03-12T11:16:54;94442.16;;;11.39;25.43
68179;BME280;54998;42.656;23.382;2023-03-12T11:19:32;94456.69;;;10.43;26.50
68179;BME280;54998;42.656;23.382;2023-03-12T11:22:03;94445.75;;;12.21;24.94
68179;BME280;54998;42.656;23.382;2023-03-12T11:24:29;94447.69;;;13.24;23.33
68179;BME280;54998;42.656;23.382;2023-03-12T11:27:05;94440.50;;;11.72;25.52
68179;BME280;54998;42.656;23.382;2023-03-12T11:29:37;94450.00;;;8.10;31.07
68179;BME280;54998;42.656;23.382;2023-03-12T11:34:37;94443.00;;;12.64;25.53
68179;BME280;54998;42.656;23.382;2023-03-12T11:37:13;94435.63;;;12.36;24.80
68179;BME280;54998;42.656;23.382;2023-03-12T11:45:53;94445.19;;;10.12;26.24
68179;BME280;54998;42.656;23.382;2023-03-12T11:48:45;94432.16;;;9.87;26.91
68179;BME280;54998;42.656;23.382;2023-03-12T11:56:50;94433.66;;;11.97;24.84
68179;BME280;54998;42.656;23.382;2023-03-12T11:59:32;94437.22;;;10.33;26.54
68179;BME280;54998;42.656;23.382;2023-03-12T12:07:56;94417.19;;;9.64;28.53
68179;BME280;54998;42.656;23.382;2023-03-12T12:13:23;94446.28;;;10.97;27.30
68179;BME280;54998;42.656;23.382;2023-03-12T12:19:21;94430.94;;;9.45;28.57
68179;BME280;54998;42.656;23.382;2023-03-12T12:24:40;94436.44;;;11.61;25.84
68179;BME280;54998;42.656;23.382;2023-03-12T12:32:29;94429.75;;;11.34;26.34
68179;BME280;54998;42.656;23.382;2023-03-12T12:40:26;94422.50;;;10.35;28.09
68179;BME280;54998;42.656;23.382;2023-03-12T12:45:41;94427.88;;;12.03;26.08
68179;BME280;54998;42.656;23.382;2023-03-12T12:50:53;94426.25;;;8.66;30.32
68179;BME280;54998;42.656;23.382;2023-03-12T12:53:25;94431.63;;;9.65;30.15
68179;BME280;54998;42.656;23.382;2023-03-12T12:56:14;94439.03;;;10.04;29.35
68179;BME280;54998;42.656;23.382;2023-03-12T13:01:18;94432.94;;;9.87;29.08
68179;BME280;54998;42.656;23.382;2023-03-12T13:03:44;94425.91;;;10.43;28.31
68179;BME280;54998;42.656;23.382;2023-03-12T13:06:11;94447.31;;;9.98;28.76
68179;BME280;54998;42.656;23.382;2023-03-12T13:13:45;94433.81;;;9.05;30.32
68179;BME280;54998;42.656;23.382;2023-03-12T13:16:38;94449.97;;;8.39;31.18
68179;BME280;54998;42.656;23.382;2023-03-12T13:27:22;94449.41;;;7.07;33.82
68179;BME280;54998;42.656;23.382;2023-03-12T13:29:49;94458.78;;;6.76;34.52
68179;BME280;54998;42.656;23.382;2023-03-12T13:34:58;94466.38;;;6.24;35.42
68179;BME280;54998;42.656;23.382;2023-03-12T13:37:57;94468.44;;;6.30;35.15
68179;BME280;54998;42.656;23.382;2023-03-12T13:45:32;94455.69;;;6.30;35.17
68179;BME280;54998;42.656;23.382;2023-03-12T13:48:01;94464.91;;;6.43;34.96
68179;BME280;54998;42.656;23.382;2023-03-12T13:50:41;94455.88;;;6.38;35.19
68179;BME280;54998;42.656;23.382;2023-03-12T13:53:39;94463.66;;;6.58;35.56
68179;BME280;54998;42.656;23.382;2023-03-12T13:56:08;94465.19;;;6.07;36.25
68179;BME280;54998;42.656;23.382;2023-03-12T13:58:47;94477.69;;;6.10;36.12
68179;BME280;54998;42.656;23.382;2023-03-12T14:01:16;94458.88;;;6.23;35.79
68179;BME280;54998;42.656;23.382;2023-03-12T14:03:52;94478.44;;;6.22;35.96
68179;BME280;54998;42.656;23.382;2023-03-12T14:06:22;94471.28;;;6.37;35.97
68179;BME280;54998;42.656;23.382;2023-03-12T14:09:16;94474.47;;;6.29;35.95
68179;BME280;54998;42.656;23.382;2023-03-12T14:17:19;94472.91;;;6.17;35.93
68179;BME280;54998;42.656;23.382;2023-03-12T14:19:55;94483.03;;;6.28;36.00
68179;BME280;54998;42.656;23.382;2023-03-12T14:22:22;94480.81;;;6.35;35.74
68179;BME280;54998;42.656;23.382;2023-03-12T14:24:54;94485.97;;;6.45;35.47
68179;BME280;54998;42.656;23.382;2023-03-12T14:27:25;94494.50;;;6.34;35.64
68179;BME280;54998;42.656;23.382;2023-03-12T14:30:10;94488.06;;;6.40;35.40
68179;BME280;54998;42.656;23.382;2023-03-12T14:32:37;94483.81;;;6.40;35.83
68179;BME280;54998;42.656;23.382;2023-03-12T14:37:35;94481.81;;;6.23;35.54
68179;BME280;54998;42.656;23.382;2023-03-12T14:40:19;94485.56;;;6.07;36.13
68179;BME280;54998;42.656;23.382;2023-03-12T14:42:46;94479.09;;;5.92;35.93
68179;BME280;54998;42.656;23.382;2023-03-12T14:45:16;94492.63;;;6.04;35.81
68179;BME280;54998;42.656;23.382;2023-03-12T14:47:46;94498.13;;;6.20;35.96
68179;BME280;54998;42.656;23.382;2023-03-12T14:50:23;94493.03;;;6.20;35.68
68179;BME280;54998;42.656;23.382;2023-03-12T14:52:50;94496.56;;;6.29;35.46
68179;BME280;54998;42.656;23.382;2023-03-12T14:55:19;94497.84;;;6.34;35.63
68179;BME280;54998;42.656;23.382;2023-03-12T14:57:47;94501.69;;;6.29;36.00
68179;BME280;54998;42.656;23.382;2023-03-12T15:00:22;94484.88;;;6.05;35.40
68179;BME280;54998;42.656;23.382;2023-03-12T15:02:48;94491.25;;;6.32;35.36
68179;BME280;54998;42.656;23.382;2023-03-12T15:05:18;94500.38;;;6.34;35.26
68179;BME280;54998;42.656;23.382;2023-03-12T15:07:45;94508.56;;;6.49;35.15
68179;BME280;54998;42.656;23.382;2023-03-12T15:10:22;94498.22;;;5.97;35.69